sensor_id;sensor_type;location;lat;lon;timestamp;pressure;altitude;pressure_sealevel;temperature;humidity
6851;BME280;3464;42.728;23.296;2023-12-14T00:01:38;94228.97;;;18.33;41.90
6851;BME280;3464;42.728;23.296;2023-12-14T00:04:07;94240.09;;;17.74;43.14
6851;BME280;3464;42.728;23.296;2023-12-14T00:06:34;94222.73;;;18.19;42.25
6851;BME280;3464;42.728;23.296;2023-12-14T00:09:00;94233.20;;;18.34;41.96
6851;BME280;3464;42.728;23.296;2023-12-14T00:11:29;94231.23;;;18.53;41.54
6851;BME280;3464;42.728;23.296;2023-12-14T00:13:56;94225.66;;;18.65;41.25
6851;BME280;3464;42.728;23.296;2023-12-14T00:16:23;94233.02;;;18.72;41.24
6851;BME280;3464;42.728;23.296;2023-12-14T00:18:49;94246.64;;;18.49;41.72
6851;BME280;3464;42.728;23.296;2023-12-14T00:21:16;94244.28;;;17.87;42.72
6851;BME280;3464;42.728;23.296;2023-12-14T00:23:42;94243.41;;;18.23;42.15
6851;BME280;3464;42.728;23.296;2023-12-14T00:26:09;94241.75;;;17.98;42.67
6851;BME280;3464;42.728;23.296;2023-12-14T00:28:37;94257.73;;;18.36;41.98
6851;BME280;3464;42.728;23.296;2023-12-14T00:31:05;94229.86;;;18.32;41.96
6851;BME280;3464;42.728;23.296;2023-12-14T00:33:32;94237.73;;;18.15;42.20
6851;BME280;3464;42.728;23.296;2023-12-14T00:36:00;94238.48;;;18.17;42.13
6851;BME280;3464;42.728;23.296;2023-12-14T00:38:27;94249.20;;;18.03;42.45
6851;BME280;3464;42.728;23.296;2023-12-14T00:40:55;94244.30;;;18.32;41.96
6851;BME280;3464;42.728;23.296;2023-12-14T00:43:22;94235.08;;;18.29;42.09
6851;BME280;3464;42.728;23.296;2023-12-14T00:45:48;94232.09;;;18.30;42.02
6851;BME280;3464;42.728;23.296;2023-12-14T00:48:16;94247.14;;;17.66;43.03
6851;BME280;3464;42.728;23.296;2023-12-14T00:50:43;94243.06;;;17.23;43.69
6851;BME280;3464;42.728;23.296;2023-12-14T00:53:10;94240.91;;;17.50;43.36
6851;BME280;3464;42.728;23.296;2023-12-14T00:55:37;94245.45;;;17.78;42.79
6851;BME280;3464;42.728;23.296;2023-12-14T00:58:05;94244.43;;;17.95;42.52
6851;BME280;3464;42.728;23.296;2023-12-14T01:00:31;94243.59;;;17.70;42.83
6851;BME280;3464;42.728;23.296;2023-12-14T01:02:58;94249.78;;;17.76;42.73
6851;BME280;3464;42.728;23.296;2023-12-14T01:05:25;94246.94;;;17.95;42.39
6851;BME280;3464;42.728;23.296;2023-12-14T01:07:52;94240.72;;;17.56;43.16
6851;BME280;3464;42.728;23.296;2023-12-14T01:10:18;94236.22;;;17.75;42.89
6851;BME280;3464;42.728;23.296;2023-12-14T01:12:47;94233.03;;;17.93;42.50
6851;BME280;3464;42.728;23.296;2023-12-14T01:15:14;94236.89;;;18.15;42.07
6851;BME280;3464;42.728;23.296;2023-12-14T01:17:40;94238.28;;;17.76;42.68
6851;BME280;3464;42.728;23.296;2023-12-14T01:20:07;94234.77;;;18.15;42.20
6851;BME280;3464;42.728;23.296;2023-12-14T01:22:34;94235.91;;;18.30;41.87
6851;BME280;3464;42.728;23.296;2023-12-14T01:25:00;94234.02;;;18.12;42.22
6851;BME280;3464;42.728;23.296;2023-12-14T01:27:27;94220.34;;;18.03;42.43
6851;BME280;3464;42.728;23.296;2023-12-14T01:29:54;94224.69;;;18.12;42.15
6851;BME280;3464;42.728;23.296;2023-12-14T01:32:22;94228.99;;;17.64;42.90
6851;BME280;3464;42.728;23.296;2023-12-14T01:34:49;94230.48;;;17.57;43.21
6851;BME280;3464;42.728;23.296;2023-12-14T01:37:16;94232.92;;;17.60;43.24
6851;BME280;3464;42.728;23.296;2023-12-14T01:39:44;94232.44;;;17.50;43.35
6851;BME280;3464;42.728;23.296;2023-12-14T01:42:10;94222.95;;;17.42;43.41
6851;BME280;3464;42.728;23.296;2023-12-14T01:44:37;94224.60;;;17.91;42.56
6851;BME280;3464;42.728;23.296;2023-12-14T01:47:03;94221.47;;;17.95;42.47
6851;BME280;3464;42.728;23.296;2023-12-14T01:49:31;94217.98;;;18.21;42.08
6851;BME280;3464;42.728;23.296;2023-12-14T01:51:57;94223.86;;;17.77;42.84
6851;BME280;3464;42.728;23.296;2023-12-14T01:54:24;94223.75;;;17.80;42.59
6851;BME280;3464;42.728;23.296;2023-12-14T01:56:50;94231.07;;;17.77;42.61
6851;BME280;3464;42.728;23.296;2023-12-14T01:59:18;94215.37;;;17.76;42.76
6851;BME280;3464;42.728;23.296;2023-12-14T02:01:46;94209.30;;;18.04;42.28
6851;BME280;3464;42.728;23.296;2023-12-14T02:04:12;94223.92;;;17.98;42.33
6851;BME280;3464;42.728;23.296;2023-12-14T02:06:39;94206.80;;;17.79;42.62
6851;BME280;3464;42.728;23.296;2023-12-14T02:09:06;94200.46;;;17.30;43.18
6851;BME280;3464;42.728;23.296;2023-12-14T02:11:33;94206.45;;;16.90;44.34
6851;BME280;3464;42.728;23.296;2023-12-14T02:14:04;94215.75;;;17.66;43.04
6851;BME280;3464;42.728;23.296;2023-12-14T02:16:32;94209.12;;;17.96;42.36
6851;BME280;3464;42.728;23.296;2023-12-14T02:18:59;94202.73;;;18.09;42.19
6851;BME280;3464;42.728;23.296;2023-12-14T02:21:26;94213.80;;;17.85;42.52
6851;BME280;3464;42.728;23.296;2023-12-14T02:23:52;94216.97;;;17.79;42.71
6851;BME280;3464;42.728;23.296;2023-12-14T02:26:19;94202.86;;;17.83;42.65
6851;BME280;3464;42.728;23.296;2023-12-14T02:28:47;94199.70;;;18.10;42.20
6851;BME280;3464;42.728;23.296;2023-12-14T02:31:13;94199.22;;;18.12;42.21
6851;BME280;3464;42.728;23.296;2023-12-14T02:33:40;94198.89;;;17.75;42.88
6851;BME280;3464;42.728;23.296;2023-12-14T02:36:07;94190.32;;;18.01;42.40
6851;BME280;3464;42.728;23.296;2023-12-14T02:38:34;94193.02;;;17.73;42.67
6851;BME280;3464;42.728;23.296;2023-12-14T02:41:00;94212.09;;;17.85;42.74
6851;BME280;3464;42.728;23.296;2023-12-14T02:43:28;94180.18;;;17.40;43.28
6851;BME280;3464;42.728;23.296;2023-12-14T02:45:54;94216.53;;;17.92;42.69
6851;BME280;3464;42.728;23.296;2023-12-14T02:48:21;94190.82;;;17.52;43.43
6851;BME280;3464;42.728;23.296;2023-12-14T02:50:49;94222.39;;;17.70;43.09
6851;BME280;3464;42.728;23.296;2023-12-14T02:53:17;94190.02;;;17.74;42.87
6851;BME280;3464;42.728;23.296;2023-12-14T02:55:45;94212.62;;;17.71;42.82
6851;BME280;3464;42.728;23.296;2023-12-14T02:58:13;94212.30;;;18.02;42.39
6851;BME280;3464;42.728;23.296;2023-12-14T03:00:39;94206.30;;;17.58;42.72
6851;BME280;3464;42.728;23.296;2023-12-14T03:03:06;94210.11;;;17.33;43.22
6851;BME280;3464;42.728;23.296;2023-12-14T03:05:34;94210.09;;;17.20;43.70
6851;BME280;3464;42.728;23.296;2023-12-14T03:08:02;94192.53;;;17.63;43.05
6851;BME280;3464;42.728;23.296;2023-12-14T03:10:28;94209.91;;;17.87;42.53
6851;BME280;3464;42.728;23.296;2023-12-14T03:12:55;94177.25;;;17.86;42.71
6851;BME280;3464;42.728;23.296;2023-12-14T03:15:22;94197.59;;;18.10;42.29
6851;BME280;3464;42.728;23.296;2023-12-14T03:17:48;94203.23;;;17.84;42.85
6851;BME280;3464;42.728;23.296;2023-12-14T03:20:16;94179.48;;;17.48;43.55
6851;BME280;3464;42.728;23.296;2023-12-14T03:22:44;94186.53;;;17.65;43.33
6851;BME280;3464;42.728;23.296;2023-12-14T03:25:11;94178.95;;;17.63;43.25
6851;BME280;3464;42.728;23.296;2023-12-14T03:27:38;94174.55;;;17.56;43.49
6851;BME280;3464;42.728;23.296;2023-12-14T03:30:05;94184.14;;;17.84;42.94
6851;BME280;3464;42.728;23.296;2023-12-14T03:32:32;94167.14;;;18.07;42.71
6851;BME280;3464;42.728;23.296;2023-12-14T03:34:59;94169.45;;;18.36;42.08
6851;BME280;3464;42.728;23.296;2023-12-14T03:37:25;94160.28;;;18.31;42.07
6851;BME280;3464;42.728;23.296;2023-12-14T03:39:52;94157.36;;;18.41;42.05
6851;BME280;3464;42.728;23.296;2023-12-14T03:42:18;94149.20;;;18.54;41.73
6851;BME280;3464;42.728;23.296;2023-12-14T03:44:45;94145.23;;;18.47;41.79
6851;BME280;3464;42.728;23.296;2023-12-14T03:47:12;94150.22;;;18.27;42.13
6851;BME280;3464;42.728;23.296;2023-12-14T03:49:38;94122.91;;;18.20;42.10
6851;BME280;3464;42.728;23.296;2023-12-14T03:52:05;94151.33;;;17.76;43.18
6851;BME280;3464;42.728;23.296;2023-12-14T03:54:31;94150.97;;;17.98;42.83
6851;BME280;3464;42.728;23.296;2023-12-14T03:56:58;94139.05;;;18.43;42.03
6851;BME280;3464;42.728;23.296;2023-12-14T03:59:24;94152.38;;;18.38;42.02
6851;BME280;3464;42.728;23.296;2023-12-14T04:01:51;94165.50;;;18.06;42.73
6851;BME280;3464;42.728;23.296;2023-12-14T04:04:18;94129.95;;;18.36;42.27
6851;BME280;3464;42.728;23.296;2023-12-14T04:06:44;94160.70;;;17.15;44.48
6851;BME280;3464;42.728;23.296;2023-12-14T04:09:12;94150.16;;;18.07;42.80
6851;BME280;3464;42.728;23.296;2023-12-14T04:11:41;94166.58;;;18.22;42.54
6851;BME280;3464;42.728;23.296;2023-12-14T04:14:09;94171.75;;;18.42;42.15
6851;BME280;3464;42.728;23.296;2023-12-14T04:16:41;94186.14;;;17.87;43.06
6851;BME280;3464;42.728;23.296;2023-12-14T04:19:09;94182.55;;;17.21;44.42
6851;BME280;3464;42.728;23.296;2023-12-14T04:21:36;94182.39;;;17.60;43.36
6851;BME280;3464;42.728;23.296;2023-12-14T04:24:05;94179.00;;;17.62;43.48
6851;BME280;3464;42.728;23.296;2023-12-14T04:26:33;94161.05;;;18.22;42.46
6851;BME280;3464;42.728;23.296;2023-12-14T04:29:00;94163.16;;;17.66;42.94
6851;BME280;3464;42.728;23.296;2023-12-14T04:31:26;94170.37;;;17.42;43.77
6851;BME280;3464;42.728;23.296;2023-12-14T04:33:53;94167.40;;;17.54;43.58
6851;BME280;3464;42.728;23.296;2023-12-14T04:36:19;94148.36;;;17.99;42.80
6851;BME280;3464;42.728;23.296;2023-12-14T04:38:46;94173.75;;;17.89;42.86
6851;BME280;3464;42.728;23.296;2023-12-14T04:41:13;94156.45;;;18.20;42.42
6851;BME280;3464;42.728;23.296;2023-12-14T04:43:39;94167.68;;;18.26;42.31
6851;BME280;3464;42.728;23.296;2023-12-14T04:46:06;94152.00;;;18.36;42.13
6851;BME280;3464;42.728;23.296;2023-12-14T04:48:32;94166.62;;;18.21;42.28
6851;BME280;3464;42.728;23.296;2023-12-14T04:50:59;94176.77;;;17.88;42.90
6851;BME280;3464;42.728;23.296;2023-12-14T04:53:25;94191.28;;;18.30;42.11
6851;BME280;3464;42.728;23.296;2023-12-14T04:55:52;94168.45;;;17.83;42.88
6851;BME280;3464;42.728;23.296;2023-12-14T04:58:18;94177.22;;;18.10;42.61
6851;BME280;3464;42.728;23.296;2023-12-14T05:00:45;94183.72;;;17.73;43.10
6851;BME280;3464;42.728;23.296;2023-12-14T05:03:11;94175.88;;;17.54;43.41
6851;BME280;3464;42.728;23.296;2023-12-14T05:05:38;94167.09;;;18.08;42.63
6851;BME280;3464;42.728;23.296;2023-12-14T05:08:04;94158.82;;;18.25;42.26
6851;BME280;3464;42.728;23.296;2023-12-14T05:10:31;94164.62;;;17.95;42.77
6851;BME280;3464;42.728;23.296;2023-12-14T05:12:58;94146.98;;;18.02;42.48
6851;BME280;3464;42.728;23.296;2023-12-14T05:15:24;94167.56;;;18.07;42.35
6851;BME280;3464;42.728;23.296;2023-12-14T05:17:53;94167.05;;;17.98;42.59
6851;BME280;3464;42.728;23.296;2023-12-14T05:20:19;94177.09;;;18.13;42.25
6851;BME280;3464;42.728;23.296;2023-12-14T05:22:46;94184.33;;;18.02;42.56
6851;BME280;3464;42.728;23.296;2023-12-14T05:25:12;94192.28;;;18.05;42.47
6851;BME280;3464;42.728;23.296;2023-12-14T05:27:39;94189.92;;;17.88;42.67
6851;BME280;3464;42.728;23.296;2023-12-14T05:30:06;94181.53;;;17.97;42.52
6851;BME280;3464;42.728;23.296;2023-12-14T05:32:33;94164.70;;;18.04;42.40
6851;BME280;3464;42.728;23.296;2023-12-14T05:35:00;94198.41;;;17.40;43.29
6851;BME280;3464;42.728;23.296;2023-12-14T05:37:26;94199.56;;;16.40;45.59
6851;BME280;3464;42.728;23.296;2023-12-14T05:39:53;94193.47;;;16.86;44.91
6851;BME280;3464;42.728;23.296;2023-12-14T05:42:20;94187.92;;;17.61;43.61
6851;BME280;3464;42.728;23.296;2023-12-14T05:44:47;94204.67;;;16.92;44.54
6851;BME280;3464;42.728;23.296;2023-12-14T05:47:14;94195.38;;;17.55;43.69
6851;BME280;3464;42.728;23.296;2023-12-14T05:49:42;94199.32;;;17.74;43.37
6851;BME280;3464;42.728;23.296;2023-12-14T05:52:08;94203.00;;;17.43;43.96
6851;BME280;3464;42.728;23.296;2023-12-14T05:54:35;94202.44;;;17.82;43.23
6851;BME280;3464;42.728;23.296;2023-12-14T05:57:02;94196.55;;;17.92;43.09
6851;BME280;3464;42.728;23.296;2023-12-14T05:59:28;94176.92;;;17.84;43.21
6851;BME280;3464;42.728;23.296;2023-12-14T06:01:58;94199.93;;;18.04;42.94
6851;BME280;3464;42.728;23.296;2023-12-14T06:04:25;94204.93;;;17.72;43.54
6851;BME280;3464;42.728;23.296;2023-12-14T06:06:51;94217.87;;;17.41;44.28
6851;BME280;3464;42.728;23.296;2023-12-14T06:09:17;94200.63;;;17.51;44.02
6851;BME280;3464;42.728;23.296;2023-12-14T06:11:44;94197.56;;;17.88;43.24
6851;BME280;3464;42.728;23.296;2023-12-14T06:14:10;94201.96;;;17.72;43.42
6851;BME280;3464;42.728;23.296;2023-12-14T06:16:37;94196.36;;;18.09;43.02
6851;BME280;3464;42.728;23.296;2023-12-14T06:19:05;94206.25;;;17.59;43.81
6851;BME280;3464;42.728;23.296;2023-12-14T06:21:32;94208.00;;;17.93;43.35
6851;BME280;3464;42.728;23.296;2023-12-14T06:23:58;94212.11;;;18.19;42.82
6851;BME280;3464;42.728;23.296;2023-12-14T06:26:25;94225.96;;;18.23;42.75
6851;BME280;3464;42.728;23.296;2023-12-14T06:28:52;94225.38;;;18.16;42.86
6851;BME280;3464;42.728;23.296;2023-12-14T06:31:18;94233.72;;;18.54;42.37
6851;BME280;3464;42.728;23.296;2023-12-14T06:33:45;94240.76;;;18.37;42.56
6851;BME280;3464;42.728;23.296;2023-12-14T06:36:11;94240.81;;;18.79;41.99
6851;BME280;3464;42.728;23.296;2023-12-14T06:38:38;94228.33;;;18.28;42.73
6851;BME280;3464;42.728;23.296;2023-12-14T06:41:04;94234.69;;;18.83;41.99
6851;BME280;3464;42.728;23.296;2023-12-14T06:43:31;94236.11;;;19.21;41.44
6851;BME280;3464;42.728;23.296;2023-12-14T06:45:57;94241.61;;;18.80;41.73
6851;BME280;3464;42.728;23.296;2023-12-14T06:48:24;94237.67;;;18.28;42.90
6851;BME280;3464;42.728;23.296;2023-12-14T06:50:51;94234.09;;;18.77;42.12
6851;BME280;3464;42.728;23.296;2023-12-14T06:53:17;94230.30;;;18.76;42.02
6851;BME280;3464;42.728;23.296;2023-12-14T06:55:44;94258.51;;;18.72;42.02
6851;BME280;3464;42.728;23.296;2023-12-14T06:58:10;94253.34;;;18.17;42.99
6851;BME280;3464;42.728;23.296;2023-12-14T07:00:37;94237.98;;;18.96;42.13
6851;BME280;3464;42.728;23.296;2023-12-14T07:03:03;94233.05;;;18.82;41.90
6851;BME280;3464;42.728;23.296;2023-12-14T07:05:30;94247.95;;;19.13;41.79
6851;BME280;3464;42.728;23.296;2023-12-14T07:07:57;94260.50;;;18.08;43.06
6851;BME280;3464;42.728;23.296;2023-12-14T07:10:24;94253.46;;;18.03;43.68
6851;BME280;3464;42.728;23.296;2023-12-14T07:12:50;94260.60;;;18.28;42.98
6851;BME280;3464;42.728;23.296;2023-12-14T07:15:17;94265.59;;;18.65;42.53
6851;BME280;3464;42.728;23.296;2023-12-14T07:17:44;94275.58;;;19.14;41.96
6851;BME280;3464;42.728;23.296;2023-12-14T07:20:12;94278.92;;;18.39;42.74
6851;BME280;3464;42.728;23.296;2023-12-14T07:22:39;94284.63;;;18.99;42.19
6851;BME280;3464;42.728;23.296;2023-12-14T07:25:05;94271.89;;;19.20;41.75
6851;BME280;3464;42.728;23.296;2023-12-14T07:27:32;94288.98;;;19.70;41.14
6851;BME280;3464;42.728;23.296;2023-12-14T07:29:59;94275.69;;;19.62;41.18
6851;BME280;3464;42.728;23.296;2023-12-14T07:32:25;94264.16;;;19.74;40.97
6851;BME280;3464;42.728;23.296;2023-12-14T07:34:52;94266.27;;;19.43;41.25
6851;BME280;3464;42.728;23.296;2023-12-14T07:37:18;94253.53;;;19.73;41.35
6851;BME280;3464;42.728;23.296;2023-12-14T07:39:45;94272.02;;;20.28;40.48
6851;BME280;3464;42.728;23.296;2023-12-14T07:42:12;94273.22;;;20.09;40.45
6851;BME280;3464;42.728;23.296;2023-12-14T07:44:38;94286.84;;;20.10;40.37
6851;BME280;3464;42.728;23.296;2023-12-14T07:47:05;94270.38;;;19.97;40.72
6851;BME280;3464;42.728;23.296;2023-12-14T07:49:31;94284.63;;;20.59;39.77
6851;BME280;3464;42.728;23.296;2023-12-14T07:51:58;94286.98;;;21.10;38.96
6851;BME280;3464;42.728;23.296;2023-12-14T07:54:24;94293.26;;;21.30;38.83
6851;BME280;3464;42.728;23.296;2023-12-14T07:56:51;94272.05;;;21.36;38.65
6851;BME280;3464;42.728;23.296;2023-12-14T07:59:17;94282.86;;;21.42;38.26
6851;BME280;3464;42.728;23.296;2023-12-14T08:01:44;94267.89;;;21.77;38.30
6851;BME280;3464;42.728;23.296;2023-12-14T08:04:11;94285.75;;;21.61;38.10
6851;BME280;3464;42.728;23.296;2023-12-14T08:06:37;94260.70;;;22.33;37.24
6851;BME280;3464;42.728;23.296;2023-12-14T08:09:04;94302.31;;;21.88;37.56
6851;BME280;3464;42.728;23.296;2023-12-14T08:11:30;94292.63;;;21.94;37.92
6851;BME280;3464;42.728;23.296;2023-12-14T08:13:57;94283.33;;;21.84;37.86
6851;BME280;3464;42.728;23.296;2023-12-14T08:16:23;94282.83;;;22.02;37.38
6851;BME280;3464;42.728;23.296;2023-12-14T08:18:50;94296.82;;;21.87;37.94
6851;BME280;3464;42.728;23.296;2023-12-14T08:21:19;94282.18;;;22.23;37.33
6851;BME280;3464;42.728;23.296;2023-12-14T08:23:45;94277.00;;;22.24;37.24
6851;BME280;3464;42.728;23.296;2023-12-14T08:26:12;94287.06;;;22.03;37.51
6851;BME280;3464;42.728;23.296;2023-12-14T08:28:39;94285.78;;;22.68;36.81
6851;BME280;3464;42.728;23.296;2023-12-14T08:31:05;94277.72;;;22.90;36.21
6851;BME280;3464;42.728;23.296;2023-12-14T08:33:32;94294.56;;;22.47;36.65
6851;BME280;3464;42.728;23.296;2023-12-14T08:35:59;94288.78;;;22.52;36.92
6851;BME280;3464;42.728;23.296;2023-12-14T08:38:25;94291.85;;;22.50;36.89
6851;BME280;3464;42.728;23.296;2023-12-14T08:40:52;94284.72;;;23.41;35.89
6851;BME280;3464;42.728;23.296;2023-12-14T08:43:18;94286.11;;;23.61;35.31
6851;BME280;3464;42.728;23.296;2023-12-14T08:45:45;94289.20;;;23.67;35.28
6851;BME280;3464;42.728;23.296;2023-12-14T08:48:11;94285.92;;;23.94;34.69
6851;BME280;3464;42.728;23.296;2023-12-14T08:50:38;94277.59;;;24.19;34.76
6851;BME280;3464;42.728;23.296;2023-12-14T08:53:04;94287.16;;;24.02;34.93
6851;BME280;3464;42.728;23.296;2023-12-14T08:55:31;94293.47;;;24.26;34.56
6851;BME280;3464;42.728;23.296;2023-12-14T08:57:57;94301.83;;;24.92;33.88
6851;BME280;3464;42.728;23.296;2023-12-14T09:00:24;94305.13;;;23.66;34.92
6851;BME280;3464;42.728;23.296;2023-12-14T09:02:51;94305.45;;;23.53;35.28
6851;BME280;3464;42.728;23.296;2023-12-14T09:05:18;94290.30;;;24.00;34.54
6851;BME280;3464;42.728;23.296;2023-12-14T09:07:44;94292.94;;;24.70;34.26
6851;BME280;3464;42.728;23.296;2023-12-14T09:10:11;94297.31;;;24.89;33.71
6851;BME280;3464;42.728;23.296;2023-12-14T09:12:37;94284.25;;;25.39;33.29
6851;BME280;3464;42.728;23.296;2023-12-14T09:15:04;94277.72;;;23.80;34.83
6851;BME280;3464;42.728;23.296;2023-12-14T09:17:31;94282.68;;;23.61;35.77
6851;BME280;3464;42.728;23.296;2023-12-14T09:19:59;94283.84;;;24.22;35.26
6851;BME280;3464;42.728;23.296;2023-12-14T09:22:27;94284.56;;;24.80;34.46
6851;BME280;3464;42.728;23.296;2023-12-14T09:24:54;94280.89;;;24.42;34.55
6851;BME280;3464;42.728;23.296;2023-12-14T09:27:20;94284.56;;;23.51;36.22
6851;BME280;3464;42.728;23.296;2023-12-14T09:29:47;94286.66;;;24.67;35.11
6851;BME280;3464;42.728;23.296;2023-12-14T09:32:13;94292.87;;;24.49;35.13
6851;BME280;3464;42.728;23.296;2023-12-14T09:34:40;94296.22;;;23.64;36.17
6851;BME280;3464;42.728;23.296;2023-12-14T09:37:06;94311.08;;;23.29;37.03
6851;BME280;3464;42.728;23.296;2023-12-14T09:39:33;94306.02;;;24.31;35.69
6851;BME280;3464;42.728;23.296;2023-12-14T09:42:03;94295.62;;;24.96;34.82
6851;BME280;3464;42.728;23.296;2023-12-14T09:44:30;94302.15;;;25.14;34.51
6851;BME280;3464;42.728;23.296;2023-12-14T09:46:57;94288.52;;;24.44;35.59
6851;BME280;3464;42.728;23.296;2023-12-14T09:49:23;94294.55;;;24.71;35.32
6851;BME280;3464;42.728;23.296;2023-12-14T09:51:49;94307.47;;;24.98;35.19
6851;BME280;3464;42.728;23.296;2023-12-14T09:54:16;94308.47;;;24.68;35.55
6851;BME280;3464;42.728;23.296;2023-12-14T09:56:46;94317.17;;;24.31;36.48
6851;BME280;3464;42.728;23.296;2023-12-14T09:59:12;94315.68;;;24.69;35.55
6851;BME280;3464;42.728;23.296;2023-12-14T10:01:38;94318.16;;;25.46;34.88
6851;BME280;3464;42.728;23.296;2023-12-14T10:04:09;94310.62;;;24.82;35.58
6851;BME280;3464;42.728;23.296;2023-12-14T10:06:36;94311.23;;;24.37;36.25
6851;BME280;3464;42.728;23.296;2023-12-14T10:09:02;94306.11;;;24.29;36.21
6851;BME280;3464;42.728;23.296;2023-12-14T10:11:29;94305.01;;;24.33;36.30
6851;BME280;3464;42.728;23.296;2023-12-14T10:13:55;94310.53;;;24.69;35.76
6851;BME280;3464;42.728;23.296;2023-12-14T10:16:29;94305.43;;;24.90;35.61
6851;BME280;3464;42.728;23.296;2023-12-14T10:18:55;94308.68;;;25.13;35.29
6851;BME280;3464;42.728;23.296;2023-12-14T10:21:22;94311.11;;;24.67;35.87
6851;BME280;3464;42.728;23.296;2023-12-14T10:23:49;94304.09;;;25.04;35.49
6851;BME280;3464;42.728;23.296;2023-12-14T10:26:16;94305.88;;;25.10;35.21
6851;BME280;3464;42.728;23.296;2023-12-14T10:28:42;94292.78;;;25.13;35.27
6851;BME280;3464;42.728;23.296;2023-12-14T10:31:09;94301.48;;;25.32;34.91
6851;BME280;3464;42.728;23.296;2023-12-14T10:33:35;94300.25;;;25.17;35.17
6851;BME280;3464;42.728;23.296;2023-12-14T10:36:02;94307.45;;;24.85;35.75
6851;BME280;3464;42.728;23.296;2023-12-14T10:38:29;94315.98;;;24.36;36.78
6851;BME280;3464;42.728;23.296;2023-12-14T10:40:55;94318.04;;;23.57;38.30
6851;BME280;3464;42.728;23.296;2023-12-14T10:43:21;94324.78;;;22.66;40.30
6851;BME280;3464;42.728;23.296;2023-12-14T10:45:48;94325.83;;;23.02;39.86
6851;BME280;3464;42.728;23.296;2023-12-14T10:48:15;94332.44;;;22.59;40.67
6851;BME280;3464;42.728;23.296;2023-12-14T10:50:42;94331.66;;;22.33;41.47
6851;BME280;3464;42.728;23.296;2023-12-14T10:53:07;94342.57;;;22.53;41.56
6851;BME280;3464;42.728;23.296;2023-12-14T10:55:41;94358.78;;;22.78;41.41
6851;BME280;3464;42.728;23.296;2023-12-14T10:58:08;94353.54;;;22.06;42.27
6851;BME280;3464;42.728;23.296;2023-12-14T11:00:33;94348.35;;;22.65;41.48
6851;BME280;3464;42.728;23.296;2023-12-14T11:03:00;94365.61;;;22.37;41.80
6851;BME280;3464;42.728;23.296;2023-12-14T11:05:27;94377.81;;;22.49;41.47
6851;BME280;3464;42.728;23.296;2023-12-14T11:07:53;94362.67;;;21.50;41.70
6851;BME280;3464;42.728;23.296;2023-12-14T11:10:27;94379.15;;;21.71;41.39
6851;BME280;3464;42.728;23.296;2023-12-14T11:13:01;94382.34;;;21.13;42.26
6851;BME280;3464;42.728;23.296;2023-12-14T11:15:29;94382.94;;;21.46;41.94
6851;BME280;3464;42.728;23.296;2023-12-14T11:20:48;94388.13;;;21.71;40.84
6851;BME280;3464;42.728;23.296;2023-12-14T11:25:53;94404.09;;;20.27;42.31
6851;BME280;3464;42.728;23.296;2023-12-14T11:28:19;94412.73;;;21.11;41.30
6851;BME280;3464;42.728;23.296;2023-12-14T11:30:46;94409.06;;;21.17;41.05
6851;BME280;3464;42.728;23.296;2023-12-14T11:33:12;94418.94;;;21.06;40.78
6851;BME280;3464;42.728;23.296;2023-12-14T11:35:38;94427.41;;;20.49;41.89
6851;BME280;3464;42.728;23.296;2023-12-14T11:38:05;94420.70;;;20.57;41.51
6851;BME280;3464;42.728;23.296;2023-12-14T11:40:32;94431.16;;;20.31;42.11
6851;BME280;3464;42.728;23.296;2023-12-14T11:42:59;94428.17;;;19.59;42.70
6851;BME280;3464;42.728;23.296;2023-12-14T11:45:26;94437.17;;;19.57;42.94
6851;BME280;3464;42.728;23.296;2023-12-14T11:47:54;94434.66;;;19.46;43.18
6851;BME280;3464;42.728;23.296;2023-12-14T11:50:21;94446.57;;;19.88;42.19
6851;BME280;3464;42.728;23.296;2023-12-14T11:52:49;94444.85;;;19.67;42.82
6851;BME280;3464;42.728;23.296;2023-12-14T11:55:16;94437.69;;;19.65;42.73
6851;BME280;3464;42.728;23.296;2023-12-14T11:57:46;94440.81;;;19.51;42.80
6851;BME280;3464;42.728;23.296;2023-12-14T12:00:14;94466.22;;;19.75;42.61
6851;BME280;3464;42.728;23.296;2023-12-14T12:02:41;94456.36;;;19.88;42.61
6851;BME280;3464;42.728;23.296;2023-12-14T12:05:08;94456.28;;;20.12;42.33
6851;BME280;3464;42.728;23.296;2023-12-14T12:07:36;94458.75;;;20.03;42.37
6851;BME280;3464;42.728;23.296;2023-12-14T12:10:04;94456.06;;;19.95;42.12
6851;BME280;3464;42.728;23.296;2023-12-14T12:12:32;94469.84;;;19.59;42.76
6851;BME280;3464;42.728;23.296;2023-12-14T12:14:58;94459.22;;;19.70;42.58
6851;BME280;3464;42.728;23.296;2023-12-14T12:17:26;94466.75;;;20.46;41.71
6851;BME280;3464;42.728;23.296;2023-12-14T12:19:53;94477.38;;;20.04;41.92
6851;BME280;3464;42.728;23.296;2023-12-14T12:22:20;94457.63;;;19.78;42.35
6851;BME280;3464;42.728;23.296;2023-12-14T12:24:47;94487.94;;;19.85;42.44
6851;BME280;3464;42.728;23.296;2023-12-14T12:27:16;94491.17;;;20.00;42.23
6851;BME280;3464;42.728;23.296;2023-12-14T12:29:43;94478.00;;;20.12;41.90
6851;BME280;3464;42.728;23.296;2023-12-14T12:32:11;94489.13;;;20.30;41.66
6851;BME280;3464;42.728;23.296;2023-12-14T12:34:38;94482.63;;;19.25;43.43
6851;BME280;3464;42.728;23.296;2023-12-14T12:37:05;94496.97;;;19.73;42.50
6851;BME280;3464;42.728;23.296;2023-12-14T12:39:32;94485.14;;;19.92;42.05
6851;BME280;3464;42.728;23.296;2023-12-14T12:42:00;94494.62;;;19.56;43.02
6851;BME280;3464;42.728;23.296;2023-12-14T12:44:27;94478.78;;;20.63;41.05
6851;BME280;3464;42.728;23.296;2023-12-14T12:46:54;94489.92;;;20.32;41.84
6851;BME280;3464;42.728;23.296;2023-12-14T12:49:21;94492.43;;;19.80;42.28
6851;BME280;3464;42.728;23.296;2023-12-14T12:51:49;94491.52;;;19.38;43.15
6851;BME280;3464;42.728;23.296;2023-12-14T12:54:15;94494.29;;;18.97;44.13
6851;BME280;3464;42.728;23.296;2023-12-14T12:56:43;94503.92;;;19.00;43.87
6851;BME280;3464;42.728;23.296;2023-12-14T12:59:10;94485.41;;;19.31;43.69
6851;BME280;3464;42.728;23.296;2023-12-14T13:01:37;94502.59;;;19.60;43.01
6851;BME280;3464;42.728;23.296;2023-12-14T13:04:04;94510.70;;;20.02;42.30
6851;BME280;3464;42.728;23.296;2023-12-14T13:06:31;94499.72;;;19.35;43.18
6851;BME280;3464;42.728;23.296;2023-12-14T13:08:58;94497.35;;;19.52;43.05
6851;BME280;3464;42.728;23.296;2023-12-14T13:11:25;94507.55;;;20.07;42.02
6851;BME280;3464;42.728;23.296;2023-12-14T13:13:53;94473.97;;;19.62;42.55